sensor_id;sensor_type;location;lat;lon;timestamp;temperature;humidity
17599;DHT22;8918;52.092;5.232;2022-12-18T00:01:23;-3.00;99.90
17599;DHT22;8918;52.092;5.232;2022-12-18T00:03:50;-3.00;99.90
17599;DHT22;8918;52.092;5.232;2022-12-18T00:06:17;-3.00;99.90
17599;DHT22;8918;52.092;5.232;2022-12-18T00:08:43;-3.00;99.90
17599;DHT22;8918;52.092;5.232;2022-12-18T00:11:13;-3.10;99.90
17599;DHT22;8918;52.092;5.232;2022-12-18T00:13:39;-3.10;99.90
17599;DHT22;8918;52.092;5.232;2022-12-18T00:16:16;-3.10;99.90
17599;DHT22;8918;52.092;5.232;2022-12-18T00:18:45;-3.10;99.90
17599;DHT22;8918;52.092;5.232;2022-12-18T00:21:12;-3.20;99.90
17599;DHT22;8918;52.092;5.232;2022-12-18T00:23:39;-3.20;99.90
17599;DHT22;8918;52.092;5.232;2022-12-18T00:26:08;-3.20;99.90
17599;DHT22;8918;52.092;5.232;2022-12-18T00:28:35;-3.20;99.90
17599;DHT22;8918;52.092;5.232;2022-12-18T00:31:07;-3.30;99.90
17599;DHT22;8918;52.092;5.232;2022-12-18T00:33:33;-3.30;99.90
17599;DHT22;8918;52.092;5.232;2022-12-18T00:36:04;-3.30;99.90
17599;DHT22;8918;52.092;5.232;2022-12-18T00:38:29;-3.30;99.90
17599;DHT22;8918;52.092;5.232;2022-12-18T00:40:55;-3.20;99.90
17599;DHT22;8918;52.092;5.232;2022-12-18T00:43:21;-3.20;99.90
17599;DHT22;8918;52.092;5.232;2022-12-18T00:45:46;-3.30;99.90
17599;DHT22;8918;52.092;5.232;2022-12-18T00:48:12;-3.30;99.90
17599;DHT22;8918;52.092;5.232;2022-12-18T00:50:37;-3.30;99.90
17599;DHT22;8918;52.092;5.232;2022-12-18T00:53:03;-3.40;99.90
17599;DHT22;8918;52.092;5.232;2022-12-18T00:55:29;-3.40;99.90
17599;DHT22;8918;52.092;5.232;2022-12-18T00:57:54;-3.40;99.90
17599;DHT22;8918;52.092;5.232;2022-12-18T01:00:20;-3.40;99.90
17599;DHT22;8918;52.092;5.232;2022-12-18T01:02:46;-3.40;99.90
17599;DHT22;8918;52.092;5.232;2022-12-18T01:05:13;-3.40;99.90
17599;DHT22;8918;52.092;5.232;2022-12-18T01:07:39;-3.40;99.90
17599;DHT22;8918;52.092;5.232;2022-12-18T01:10:06;-3.30;99.90
17599;DHT22;8918;52.092;5.232;2022-12-18T01:12:32;-3.30;99.90
17599;DHT22;8918;52.092;5.232;2022-12-18T01:14:58;-3.30;99.90
17599;DHT22;8918;52.092;5.232;2022-12-18T01:17:24;-3.30;99.90
17599;DHT22;8918;52.092;5.232;2022-12-18T01:19:50;-3.30;99.90
17599;DHT22;8918;52.092;5.232;2022-12-18T01:22:15;-3.30;99.90
17599;DHT22;8918;52.092;5.232;2022-12-18T01:24:41;-3.30;99.90
17599;DHT22;8918;52.092;5.232;2022-12-18T01:27:07;-3.40;99.90
17599;DHT22;8918;52.092;5.232;2022-12-18T01:29:32;-3.40;99.90
17599;DHT22;8918;52.092;5.232;2022-12-18T01:31:58;-3.40;99.90
17599;DHT22;8918;52.092;5.232;2022-12-18T01:34:24;-3.40;99.90
17599;DHT22;8918;52.092;5.232;2022-12-18T01:36:49;-3.40;99.90
17599;DHT22;8918;52.092;5.232;2022-12-18T01:39:17;-3.50;99.90
17599;DHT22;8918;52.092;5.232;2022-12-18T01:41:44;-3.60;99.90
17599;DHT22;8918;52.092;5.232;2022-12-18T01:47:36;-3.60;99.90
17599;DHT22;8918;52.092;5.232;2022-12-18T01:52:33;-3.70;99.90
17599;DHT22;8918;52.092;5.232;2022-12-18T01:55:00;-3.70;99.90
17599;DHT22;8918;52.092;5.232;2022-12-18T01:57:28;-3.70;99.90
17599;DHT22;8918;52.092;5.232;2022-12-18T01:59:57;-3.60;99.90
17599;DHT22;8918;52.092;5.232;2022-12-18T02:02:27;-3.60;99.90
17599;DHT22;8918;52.092;5.232;2022-12-18T02:04:53;-3.60;99.90
17599;DHT22;8918;52.092;5.232;2022-12-18T02:07:36;-3.60;99.90
17599;DHT22;8918;52.092;5.232;2022-12-18T02:10:07;-3.60;99.90
17599;DHT22;8918;52.092;5.232;2022-12-18T02:15:44;-3.70;99.90
17599;DHT22;8918;52.092;5.232;2022-12-18T02:18:19;-3.80;99.90
17599;DHT22;8918;52.092;5.232;2022-12-18T02:20:56;-4.00;99.90
17599;DHT22;8918;52.092;5.232;2022-12-18T02:23:52;-4.00;99.90
17599;DHT22;8918;52.092;5.232;2022-12-18T02:26:33;-4.00;99.90
17599;DHT22;8918;52.092;5.232;2022-12-18T02:29:13;-4.00;99.90
17599;DHT22;8918;52.092;5.232;2022-12-18T02:31:45;-4.00;99.90
17599;DHT22;8918;52.092;5.232;2022-12-18T02:34:13;-4.00;99.90
17599;DHT22;8918;52.092;5.232;2022-12-18T02:36:42;-4.10;99.90
17599;DHT22;8918;52.092;5.232;2022-12-18T02:39:10;-4.10;99.90
17599;DHT22;8918;52.092;5.232;2022-12-18T02:41:36;-4.20;99.90
17599;DHT22;8918;52.092;5.232;2022-12-18T02:44:08;-4.20;99.90
17599;DHT22;8918;52.092;5.232;2022-12-18T02:46:45;-4.20;99.90
17599;DHT22;8918;52.092;5.232;2022-12-18T02:51:52;-4.30;99.90
17599;DHT22;8918;52.092;5.232;2022-12-18T02:54:51;-4.30;99.90
17599;DHT22;8918;52.092;5.232;2022-12-18T02:57:42;-4.30;99.90
17599;DHT22;8918;52.092;5.232;2022-12-18T03:00:23;-4.40;99.90
17599;DHT22;8918;52.092;5.232;2022-12-18T03:03:04;-4.40;99.90
17599;DHT22;8918;52.092;5.232;2022-12-18T03:05:46;-4.40;99.90
17599;DHT22;8918;52.092;5.232;2022-12-18T03:08:34;-4.40;99.90
17599;DHT22;8918;52.092;5.232;2022-12-18T03:11:09;-4.50;99.90
17599;DHT22;8918;52.092;5.232;2022-12-18T03:13:39;-4.50;99.90
17599;DHT22;8918;52.092;5.232;2022-12-18T03:16:08;-4.40;99.90
17599;DHT22;8918;52.092;5.232;2022-12-18T03:18:36;-4.50;99.90
17599;DHT22;8918;52.092;5.232;2022-12-18T03:21:05;-4.50;99.90
17599;DHT22;8918;52.092;5.232;2022-12-18T03:23:39;-4.50;99.90
17599;DHT22;8918;52.092;5.232;2022-12-18T03:26:09;-4.50;99.90
17599;DHT22;8918;52.092;5.232;2022-12-18T03:28:41;-4.50;99.90
17599;DHT22;8918;52.092;5.232;2022-12-18T03:31:10;-4.50;99.90
17599;DHT22;8918;52.092;5.232;2022-12-18T03:33:47;-4.50;99.90
17599;DHT22;8918;52.092;5.232;2022-12-18T03:36:16;-4.50;99.90
17599;DHT22;8918;52.092;5.232;2022-12-18T03:38:42;-4.50;99.90
17599;DHT22;8918;52.092;5.232;2022-12-18T03:41:15;-4.60;99.90
17599;DHT22;8918;52.092;5.232;2022-12-18T03:46:45;-4.60;99.90
17599;DHT22;8918;52.092;5.232;2022-12-18T03:49:37;-4.70;99.90
17599;DHT22;8918;52.092;5.232;2022-12-18T03:52:35;-4.70;99.90
17599;DHT22;8918;52.092;5.232;2022-12-18T03:55:03;-4.80;99.90
17599;DHT22;8918;52.092;5.232;2022-12-18T03:57:32;-4.70;99.90
17599;DHT22;8918;52.092;5.232;2022-12-18T04:00:10;-4.80;99.90
17599;DHT22;8918;52.092;5.232;2022-12-18T04:02:38;-4.70;99.90
17599;DHT22;8918;52.092;5.232;2022-12-18T04:05:07;-4.70;99.90
17599;DHT22;8918;52.092;5.232;2022-12-18T04:07:34;-4.70;99.90
17599;DHT22;8918;52.092;5.232;2022-12-18T04:10:02;-4.80;99.90
17599;DHT22;8918;52.092;5.232;2022-12-18T04:12:29;-4.80;99.90
17599;DHT22;8918;52.092;5.232;2022-12-18T04:14:55;-4.80;99.90
17599;DHT22;8918;52.092;5.232;2022-12-18T04:17:21;-4.80;99.90
17599;DHT22;8918;52.092;5.232;2022-12-18T04:19:47;-4.80;99.90
17599;DHT22;8918;52.092;5.232;2022-12-18T04:22:13;-4.90;99.90
17599;DHT22;8918;52.092;5.232;2022-12-18T04:24:38;-4.90;99.90
17599;DHT22;8918;52.092;5.232;2022-12-18T04:27:04;-4.90;99.90
17599;DHT22;8918;52.092;5.232;2022-12-18T04:29:30;-4.90;99.90
17599;DHT22;8918;52.092;5.232;2022-12-18T04:31:55;-4.90;99.90
17599;DHT22;8918;52.092;5.232;2022-12-18T04:34:21;-5.00;99.90
17599;DHT22;8918;52.092;5.232;2022-12-18T04:36:47;-5.00;99.90
17599;DHT22;8918;52.092;5.232;2022-12-18T04:39:12;-5.00;99.90
17599;DHT22;8918;52.092;5.232;2022-12-18T04:41:38;-4.90;99.90
17599;DHT22;8918;52.092;5.232;2022-12-18T04:44:04;-4.90;99.90
17599;DHT22;8918;52.092;5.232;2022-12-18T04:46:30;-5.00;99.90
17599;DHT22;8918;52.092;5.232;2022-12-18T04:48:55;-5.00;99.90
17599;DHT22;8918;52.092;5.232;2022-12-18T04:51:21;-5.00;99.90
17599;DHT22;8918;52.092;5.232;2022-12-18T04:53:47;-5.00;99.90
17599;DHT22;8918;52.092;5.232;2022-12-18T04:56:14;-5.00;99.90
17599;DHT22;8918;52.092;5.232;2022-12-18T04:58:41;-5.10;99.90
17599;DHT22;8918;52.092;5.232;2022-12-18T05:01:07;-5.00;99.90
17599;DHT22;8918;52.092;5.232;2022-12-18T05:03:34;-4.90;99.90
17599;DHT22;8918;52.092;5.232;2022-12-18T05:06:00;-4.90;99.90
17599;DHT22;8918;52.092;5.232;2022-12-18T05:08:26;-4.80;99.90
17599;DHT22;8918;52.092;5.232;2022-12-18T05:11:05;-4.80;99.90
17599;DHT22;8918;52.092;5.232;2022-12-18T05:13:32;-4.70;99.90
17599;DHT22;8918;52.092;5.232;2022-12-18T05:15:58;-4.80;99.90
17599;DHT22;8918;52.092;5.232;2022-12-18T05:18:24;-4.90;99.90
17599;DHT22;8918;52.092;5.232;2022-12-18T05:20:51;-4.90;99.90
17599;DHT22;8918;52.092;5.232;2022-12-18T05:23:18;-4.90;99.90
17599;DHT22;8918;52.092;5.232;2022-12-18T05:26:05;-4.90;99.90
17599;DHT22;8918;52.092;5.232;2022-12-18T05:28:33;-4.90;99.90
17599;DHT22;8918;52.092;5.232;2022-12-18T05:31:00;-4.90;99.90
17599;DHT22;8918;52.092;5.232;2022-12-18T05:33:28;-4.90;99.90
17599;DHT22;8918;52.092;5.232;2022-12-18T05:35:57;-4.90;99.90
17599;DHT22;8918;52.092;5.232;2022-12-18T05:38:24;-4.90;99.90
17599;DHT22;8918;52.092;5.232;2022-12-18T05:40:51;-4.90;99.90
17599;DHT22;8918;52.092;5.232;2022-12-18T05:43:18;-4.90;99.90
17599;DHT22;8918;52.092;5.232;2022-12-18T05:45:45;-4.90;99.90
17599;DHT22;8918;52.092;5.232;2022-12-18T05:48:10;-4.90;99.90
17599;DHT22;8918;52.092;5.232;2022-12-18T05:50:40;-4.90;99.90
17599;DHT22;8918;52.092;5.232;2022-12-18T05:53:06;-4.90;99.90
17599;DHT22;8918;52.092;5.232;2022-12-18T05:55:37;-4.90;99.90
17599;DHT22;8918;52.092;5.232;2022-12-18T05:58:04;-4.90;99.90
17599;DHT22;8918;52.092;5.232;2022-12-18T06:00:31;-4.90;99.90
17599;DHT22;8918;52.092;5.232;2022-12-18T06:02:57;-4.90;99.90
17599;DHT22;8918;52.092;5.232;2022-12-18T06:05:24;-4.90;99.90
17599;DHT22;8918;52.092;5.232;2022-12-18T06:07:50;-4.90;99.90
17599;DHT22;8918;52.092;5.232;2022-12-18T06:10:16;-5.00;99.90
17599;DHT22;8918;52.092;5.232;2022-12-18T06:12:41;-5.00;99.90
17599;DHT22;8918;52.092;5.232;2022-12-18T06:15:07;-5.00;99.90
17599;DHT22;8918;52.092;5.232;2022-12-18T06:17:34;-5.00;99.90
17599;DHT22;8918;52.092;5.232;2022-12-18T06:20:00;-5.00;99.90
17599;DHT22;8918;52.092;5.232;2022-12-18T06:22:26;-5.00;99.90
17599;DHT22;8918;52.092;5.232;2022-12-18T06:24:52;-5.00;99.90
17599;DHT22;8918;52.092;5.232;2022-12-18T06:27:17;-5.00;99.90
17599;DHT22;8918;52.092;5.232;2022-12-18T06:29:43;-5.00;99.90
17599;DHT22;8918;52.092;5.232;2022-12-18T06:32:08;-5.00;99.90
17599;DHT22;8918;52.092;5.232;2022-12-18T06:34:37;-5.00;99.90
17599;DHT22;8918;52.092;5.232;2022-12-18T06:37:03;-5.00;99.90
17599;DHT22;8918;52.092;5.232;2022-12-18T06:39:29;-5.00;99.90
17599;DHT22;8918;52.092;5.232;2022-12-18T06:41:54;-5.00;99.90
17599;DHT22;8918;52.092;5.232;2022-12-18T06:44:20;-5.00;99.90
17599;DHT22;8918;52.092;5.232;2022-12-18T06:46:46;-5.00;99.90
17599;DHT22;8918;52.092;5.232;2022-12-18T06:49:11;-5.00;99.90
17599;DHT22;8918;52.092;5.232;2022-12-18T06:51:37;-5.00;99.90
17599;DHT22;8918;52.092;5.232;2022-12-18T06:54:03;-5.00;99.90
17599;DHT22;8918;52.092;5.232;2022-12-18T06:56:29;-5.00;99.90
17599;DHT22;8918;52.092;5.232;2022-12-18T06:58:54;-5.00;99.90
17599;DHT22;8918;52.092;5.232;2022-12-18T07:01:21;-5.00;99.90
17599;DHT22;8918;52.092;5.232;2022-12-18T07:03:47;-5.00;99.90
17599;DHT22;8918;52.092;5.232;2022-12-18T07:06:18;-5.00;99.90
17599;DHT22;8918;52.092;5.232;2022-12-18T07:08:45;-5.00;99.90
17599;DHT22;8918;52.092;5.232;2022-12-18T07:11:11;-5.00;99.90
17599;DHT22;8918;52.092;5.232;2022-12-18T07:13:37;-5.00;99.90
17599;DHT22;8918;52.092;5.232;2022-12-18T07:16:10;-5.00;99.90
17599;DHT22;8918;52.092;5.232;2022-12-18T07:18:36;-5.00;99.90
17599;DHT22;8918;52.092;5.232;2022-12-18T07:21:06;-5.00;99.90
17599;DHT22;8918;52.092;5.232;2022-12-18T07:23:34;-5.00;99.90
17599;DHT22;8918;52.092;5.232;2022-12-18T07:26:05;-5.00;99.90
17599;DHT22;8918;52.092;5.232;2022-12-18T07:28:32;-4.90;99.90
17599;DHT22;8918;52.092;5.232;2022-12-18T07:31:02;-5.00;99.90
17599;DHT22;8918;52.092;5.232;2022-12-18T07:33:27;-4.90;99.90
17599;DHT22;8918;52.092;5.232;2022-12-18T07:35:53;-4.90;99.90
17599;DHT22;8918;52.092;5.232;2022-12-18T07:38:19;-4.90;99.90
17599;DHT22;8918;52.092;5.232;2022-12-18T07:40:44;-4.90;99.90
17599;DHT22;8918;52.092;5.232;2022-12-18T07:43:10;-4.90;99.90
17599;DHT22;8918;52.092;5.232;2022-12-18T07:45:36;-4.90;99.90
17599;DHT22;8918;52.092;5.232;2022-12-18T07:48:01;-4.90;99.90
17599;DHT22;8918;52.092;5.232;2022-12-18T07:50:27;-4.80;99.90
17599;DHT22;8918;52.092;5.232;2022-12-18T07:52:52;-4.80;99.90
17599;DHT22;8918;52.092;5.232;2022-12-18T07:55:18;-4.70;99.90
17599;DHT22;8918;52.092;5.232;2022-12-18T07:57:44;-4.70;99.90
17599;DHT22;8918;52.092;5.232;2022-12-18T08:00:10;-4.60;99.90
17599;DHT22;8918;52.092;5.232;2022-12-18T08:02:35;-4.60;99.90
17599;DHT22;8918;52.092;5.232;2022-12-18T08:05:01;-4.60;99.90
17599;DHT22;8918;52.092;5.232;2022-12-18T08:07:27;-4.50;99.90
17599;DHT22;8918;52.092;5.232;2022-12-18T08:09:52;-4.50;99.90
17599;DHT22;8918;52.092;5.232;2022-12-18T08:12:18;-4.40;99.90
17599;DHT22;8918;52.092;5.232;2022-12-18T08:14:43;-4.40;99.90
17599;DHT22;8918;52.092;5.232;2022-12-18T08:17:09;-4.30;99.90
17599;DHT22;8918;52.092;5.232;2022-12-18T08:19:35;-4.20;99.90
17599;DHT22;8918;52.092;5.232;2022-12-18T08:22:00;-4.20;99.90
17599;DHT22;8918;52.092;5.232;2022-12-18T08:24:26;-4.10;99.90
17599;DHT22;8918;52.092;5.232;2022-12-18T08:26:51;-4.10;99.90
17599;DHT22;8918;52.092;5.232;2022-12-18T08:29:17;-4.00;99.90
17599;DHT22;8918;52.092;5.232;2022-12-18T08:31:43;-4.00;99.90
17599;DHT22;8918;52.092;5.232;2022-12-18T08:34:08;-3.90;99.90
17599;DHT22;8918;52.092;5.232;2022-12-18T08:36:37;-3.90;99.90
17599;DHT22;8918;52.092;5.232;2022-12-18T08:39:02;-3.80;99.90
17599;DHT22;8918;52.092;5.232;2022-12-18T08:41:28;-3.70;99.90
17599;DHT22;8918;52.092;5.232;2022-12-18T08:43:53;-3.70;99.90
17599;DHT22;8918;52.092;5.232;2022-12-18T08:46:39;-3.70;99.90
17599;DHT22;8918;52.092;5.232;2022-12-18T08:49:07;-3.70;99.90
17599;DHT22;8918;52.092;5.232;2022-12-18T08:51:33;-3.60;99.90
17599;DHT22;8918;52.092;5.232;2022-12-18T08:53:59;-3.60;99.90
17599;DHT22;8918;52.092;5.232;2022-12-18T08:56:24;-3.50;99.90
17599;DHT22;8918;52.092;5.232;2022-12-18T08:58:54;-3.50;99.90
17599;DHT22;8918;52.092;5.232;2022-12-18T09:01:20;-3.40;99.90
17599;DHT22;8918;52.092;5.232;2022-12-18T09:03:46;-3.30;99.90
17599;DHT22;8918;52.092;5.232;2022-12-18T09:06:14;-3.30;99.90
17599;DHT22;8918;52.092;5.232;2022-12-18T09:08:41;-3.30;99.90
17599;DHT22;8918;52.092;5.232;2022-12-18T09:11:13;-3.30;99.90
17599;DHT22;8918;52.092;5.232;2022-12-18T09:13:39;-3.20;99.90
17599;DHT22;8918;52.092;5.232;2022-12-18T09:16:05;-3.10;99.90
17599;DHT22;8918;52.092;5.232;2022-12-18T09:18:31;-3.10;99.90
17599;DHT22;8918;52.092;5.232;2022-12-18T09:20:56;-3.00;99.90
17599;DHT22;8918;52.092;5.232;2022-12-18T09:23:22;-3.00;99.90
17599;DHT22;8918;52.092;5.232;2022-12-18T09:25:48;-2.90;99.90
17599;DHT22;8918;52.092;5.232;2022-12-18T09:28:16;-2.90;99.90
17599;DHT22;8918;52.092;5.232;2022-12-18T09:30:45;-2.80;99.90
17599;DHT22;8918;52.092;5.232;2022-12-18T09:33:11;-2.80;99.90
17599;DHT22;8918;52.092;5.232;2022-12-18T09:35:38;-2.80;99.90
17599;DHT22;8918;52.092;5.232;2022-12-18T09:38:08;-2.70;99.90
17599;DHT22;8918;52.092;5.232;2022-12-18T09:40:41;-2.70;99.90
17599;DHT22;8918;52.092;5.232;2022-12-18T09:43:16;-2.60;99.90
17599;DHT22;8918;52.092;5.232;2022-12-18T09:45:47;-2.60;99.90
17599;DHT22;8918;52.092;5.232;2022-12-18T09:48:34;-2.60;99.90
17599;DHT22;8918;52.092;5.232;2022-12-18T09:51:05;-2.50;99.90
17599;DHT22;8918;52.092;5.232;2022-12-18T09:53:35;-2.50;99.90
17599;DHT22;8918;52.092;5.232;2022-12-18T09:56:04;-2.50;99.90
17599;DHT22;8918;52.092;5.232;2022-12-18T09:58:41;-2.40;99.90
17599;DHT22;8918;52.092;5.232;2022-12-18T10:01:18;-2.50;99.90
17599;DHT22;8918;52.092;5.232;2022-12-18T10:03:46;-2.40;99.90
17599;DHT22;8918;52.092;5.232;2022-12-18T10:06:19;-2.30;99.90
17599;DHT22;8918;52.092;5.232;2022-12-18T10:08:55;-2.30;99.90
17599;DHT22;8918;52.092;5.232;2022-12-18T10:11:55;-2.30;99.90
17599;DHT22;8918;52.092;5.232;2022-12-18T10:14:34;-2.20;99.90
17599;DHT22;8918;52.092;5.232;2022-12-18T10:17:26;-2.10;99.90
17599;DHT22;8918;52.092;5.232;2022-12-18T10:20:01;-2.10;99.90
17599;DHT22;8918;52.092;5.232;2022-12-18T10:25:02;-1.90;99.90
17599;DHT22;8918;52.092;5.232;2022-12-18T10:27:29;-1.90;99.90
17599;DHT22;8918;52.092;5.232;2022-12-18T10:29:57;-2.00;99.90
17599;DHT22;8918;52.092;5.232;2022-12-18T10:32:25;-2.00;99.90
17599;DHT22;8918;52.092;5.232;2022-12-18T10:34:55;-2.00;99.90
17599;DHT22;8918;52.092;5.232;2022-12-18T10:37:26;-2.00;99.90
17599;DHT22;8918;52.092;5.232;2022-12-18T10:40:14;-2.00;99.90
17599;DHT22;8918;52.092;5.232;2022-12-18T10:42:40;-2.00;99.90
17599;DHT22;8918;52.092;5.232;2022-12-18T10:45:12;-1.90;99.90
17599;DHT22;8918;52.092;5.232;2022-12-18T10:47:49;-1.90;99.90
17599;DHT22;8918;52.092;5.232;2022-12-18T10:50:32;-1.80;99.90
17599;DHT22;8918;52.092;5.232;2022-12-18T10:53:00;-1.80;99.90
17599;DHT22;8918;52.092;5.232;2022-12-18T10:55:33;-1.70;99.90
17599;DHT22;8918;52.092;5.232;2022-12-18T11:00:44;-1.70;99.90
17599;DHT22;8918;52.092;5.232;2022-12-18T11:03:38;-1.60;99.90
17599;DHT22;8918;52.092;5.232;2022-12-18T11:06:07;-1.50;99.90
17599;DHT22;8918;52.092;5.232;2022-12-18T11:08:33;-1.50;99.90
17599;DHT22;8918;52.092;5.232;2022-12-18T11:10:59;-1.40;99.90
17599;DHT22;8918;52.092;5.232;2022-12-18T11:13:27;-1.40;99.90
17599;DHT22;8918;52.092;5.232;2022-12-18T11:15:53;-1.30;99.90
17599;DHT22;8918;52.092;5.232;2022-12-18T11:18:43;-1.30;99.90
17599;DHT22;8918;52.092;5.232;2022-12-18T11:21:10;-1.20;99.90
17599;DHT22;8918;52.092;5.232;2022-12-18T11:23:47;-1.20;99.90
17599;DHT22;8918;52.092;5.232;2022-12-18T11:26:14;-1.30;99.90
17599;DHT22;8918;52.092;5.232;2022-12-18T11:28:50;-1.20;99.90
17599;DHT22;8918;52.092;5.232;2022-12-18T11:31:27;-1.10;99.90
17599;DHT22;8918;52.092;5.232;2022-12-18T11:34:32;-1.00;99.90
17599;DHT22;8918;52.092;5.232;2022-12-18T11:36:51;-1.00;99.90
17599;DHT22;8918;52.092;5.232;2022-12-18T11:39:22;-1.00;99.90
17599;DHT22;8918;52.092;5.232;2022-12-18T11:42:01;-1.00;99.90
17599;DHT22;8918;52.092;5.232;2022-12-18T11:44:48;-0.90;99.90
17599;DHT22;8918;52.092;5.232;2022-12-18T11:47:42;-0.90;99.90
17599;DHT22;8918;52.092;5.232;2022-12-18T11:53:10;-0.80;99.90
17599;DHT22;8918;52.092;5.232;2022-12-18T11:55:41;-0.80;99.90
17599;DHT22;8918;52.092;5.232;2022-12-18T11:58:42;-0.70;99.90
17599;DHT22;8918;52.092;5.232;2022-12-18T12:01:15;-0.70;99.90
17599;DHT22;8918;52.092;5.232;2022-12-18T12:09:03;-0.80;99.90
17599;DHT22;8918;52.092;5.232;2022-12-18T12:12:13;-0.80;99.90
17599;DHT22;8918;52.092;5.232;2022-12-18T12:14:34;-0.70;99.90
17599;DHT22;8918;52.092;5.232;2022-12-18T12:19:50;-0.70;99.90
17599;DHT22;8918;52.092;5.232;2022-12-18T12:22:36;-0.60;99.90
17599;DHT22;8918;52.092;5.232;2022-12-18T12:30:39;-0.50;99.90
17599;DHT22;8918;52.092;5.232;2022-12-18T12:38:40;-0.40;99.90
17599;DHT22;8918;52.092;5.232;2022-12-18T12:41:11;-0.50;99.90
17599;DHT22;8918;52.092;5.232;2022-12-18T12:43:58;-0.40;99.90
17599;DHT22;8918;52.092;5.232;2022-12-18T12:46:25;-0.50;99.90
17599;DHT22;8918;52.092;5.232;2022-12-18T12:49:03;-0.40;99.90
17599;DHT22;8918;52.092;5.232;2022-12-18T12:51:37;-0.40;99.90
17599;DHT22;8918;52.092;5.232;2022-12-18T12:54:11;-0.40;99.90
17599;DHT22;8918;52.092;5.232;2022-12-18T12:56:46;-0.40;99.90
17599;DHT22;8918;52.092;5.232;2022-12-18T13:02:18;-0.40;99.90
17599;DHT22;8918;52.092;5.232;2022-12-18T13:07:48;-0.40;99.90
17599;DHT22;8918;52.092;5.232;2022-12-18T13:13:08;-0.30;99.90
17599;DHT22;8918;52.092;5.232;2022-12-18T13:18:27;-0.30;99.90
17599;DHT22;8918;52.092;5.232;2022-12-18T13:25:53;-0.40;99.90
17599;DHT22;8918;52.092;5.232;2022-12-18T13:35:50;-0.30;99.90
17599;DHT22;8918;52.092;5.232;2022-12-18T13:45:59;-0.40;99.90
17599;DHT22;8918;52.092;5.232;2022-12-18T13:48:27;-0.40;99.90
17599;DHT22;8918;52.092;5.232;2022-12-18T13:53:26;-0.40;99.90
17599;DHT22;8918;52.092;5.232;2022-12-18T13:55:53;-0.40;99.90
17599;DHT22;8918;52.092;5.232;2022-12-18T13:58:19;-0.30;99.90
17599;DHT22;8918;52.092;5.232;2022-12-18T14:00:44;-0.30;99.90
17599;DHT22;8918;52.092;5.232;2022-12-18T14:03:25;-0.30;99.90
17599;DHT22;8918;52.092;5.232;2022-12-18T14:05:54;-0.30;99.90
17599;DHT22;8918;52.092;5.232;2022-12-18T14:08:21;-0.30;99.90
17599;DHT22;8918;52.092;5.232;2022-12-18T14:10:48;-0.30;99.90
17599;DHT22;8918;52.092;5.232;2022-12-18T14:13:26;-0.20;99.90
17599;DHT22;8918;52.092;5.232;2022-12-18T14:15:53;-0.10;99.90
17599;DHT22;8918;52.092;5.232;2022-12-18T14:18:25;-0.10;99.90
17599;DHT22;8918;52.092;5.232;2022-12-18T14:20:54;-0.20;99.90
17599;DHT22;8918;52.092;5.232;2022-12-18T14:23:39;-0.20;99.90
17599;DHT22;8918;52.092;5.232;2022-12-18T14:26:28;-0.20;99.90
17599;DHT22;8918;52.092;5.232;2022-12-18T14:28:58;-0.20;99.90
17599;DHT22;8918;52.092;5.232;2022-12-18T14:31:28;-0.20;99.90
17599;DHT22;8918;52.092;5.232;2022-12-18T14:33:54;0.00;99.90
17599;DHT22;8918;52.092;5.232;2022-12-18T14:36:25;-0.10;99.90
17599;DHT22;8918;52.092;5.232;2022-12-18T14:38:56;-0.10;99.90
17599;DHT22;8918;52.092;5.232;2022-12-18T14:41:23;-0.10;99.90
17599;DHT22;8918;52.092;5.232;2022-12-18T14:43:51;-0.10;99.90
17599;DHT22;8918;52.092;5.232;2022-12-18T14:48:59;-0.10;99.90
17599;DHT22;8918;52.092;5.232;2022-12-18T14:51:27;-0.10;99.90
17599;DHT22;8918;52.092;5.232;2022-12-18T14:53:56;-0.10;99.90
17599;DHT22;8918;52.092;5.232;2022-12-18T14:56:26;0.00;99.90
17599;DHT22;8918;52.092;5.232;2022-12-18T15:01:26;0.00;99.90
17599;DHT22;8918;52.092;5.232;2022-12-18T15:03:54;0.00;99.90
17599;DHT22;8918;52.092;5.232;2022-12-18T15:06:29;0.00;99.90
17599;DHT22;8918;52.092;5.232;2022-12-18T15:08:56;0.00;99.90
17599;DHT22;8918;52.092;5.232;2022-12-18T15:11:32;0.00;99.90
17599;DHT22;8918;52.092;5.232;2022-12-18T15:13:59;0.00;99.90
17599;DHT22;8918;52.092;5.232;2022-12-18T15:16:25;0.10;99.90
17599;DHT22;8918;52.092;5.232;2022-12-18T15:18:52;0.00;99.90
17599;DHT22;8918;52.092;5.232;2022-12-18T15:21:19;0.00;99.90
17599;DHT22;8918;52.092;5.232;2022-12-18T15:26:15;0.00;99.90
17599;DHT22;8918;52.092;5.232;2022-12-18T15:28:55;0.00;99.90
17599;DHT22;8918;52.092;5.232;2022-12-18T15:31:32;0.00;99.90
17599;DHT22;8918;52.092;5.232;2022-12-18T15:36:29;0.00;99.90
17599;DHT22;8918;52.092;5.232;2022-12-18T15:38:56;0.00;99.90
17599;DHT22;8918;52.092;5.232;2022-12-18T15:41:22;0.00;99.90
17599;DHT22;8918;52.092;5.232;2022-12-18T15:43:49;0.00;99.90
17599;DHT22;8918;52.092;5.232;2022-12-18T15:46:20;0.00;99.90
17599;DHT22;8918;52.092;5.232;2022-12-18T15:48:51;0.00;99.90
17599;DHT22;8918;52.092;5.232;2022-12-18T15:51:26;-0.10;99.90
17599;DHT22;8918;52.092;5.232;2022-12-18T15:53:55;0.00;99.90
17599;DHT22;8918;52.092;5.232;2022-12-18T15:56:22;-0.10;99.90
17599;DHT22;8918;52.092;5.232;2022-12-18T15:59:18;0.00;99.90
17599;DHT22;8918;52.092;5.232;2022-12-18T16:01:46;0.00;99.90
17599;DHT22;8918;52.092;5.232;2022-12-18T16:04:13;-0.10;99.90
17599;DHT22;8918;52.092;5.232;2022-12-18T16:06:39;-0.10;99.90
17599;DHT22;8918;52.092;5.232;2022-12-18T16:09:05;-0.10;99.90
17599;DHT22;8918;52.092;5.232;2022-12-18T16:11:32;-0.10;99.90
17599;DHT22;8918;52.092;5.232;2022-12-18T16:14:21;0.00;99.90
17599;DHT22;8918;52.092;5.232;2022-12-18T16:16:53;0.00;99.90
17599;DHT22;8918;52.092;5.232;2022-12-18T16:19:19;0.00;99.90
17599;DHT22;8918;52.092;5.232;2022-12-18T16:21:45;0.00;99.90
17599;DHT22;8918;52.092;5.232;2022-12-18T16:24:22;0.00;99.90
17599;DHT22;8918;52.092;5.232;2022-12-18T16:26:49;0.00;99.90
17599;DHT22;8918;52.092;5.232;2022-12-18T16:29:17;0.00;99.90
17599;DHT22;8918;52.092;5.232;2022-12-18T16:31:43;0.10;99.90
17599;DHT22;8918;52.092;5.232;2022-12-18T16:34:11;0.10;99.90
17599;DHT22;8918;52.092;5.232;2022-12-18T16:36:36;0.10;99.90
17599;DHT22;8918;52.092;5.232;2022-12-18T16:39:03;0.10;99.90
17599;DHT22;8918;52.092;5.232;2022-12-18T16:41:29;0.10;99.90
17599;DHT22;8918;52.092;5.232;2022-12-18T16:43:58;0.10;99.90
17599;DHT22;8918;52.092;5.232;2022-12-18T16:46:23;0.10;99.90
17599;DHT22;8918;52.092;5.232;2022-12-18T16:48:49;0.10;99.90
17599;DHT22;8918;52.092;5.232;2022-12-18T16:51:15;0.10;99.90
17599;DHT22;8918;52.092;5.232;2022-12-18T16:53:41;0.10;99.90
17599;DHT22;8918;52.092;5.232;2022-12-18T16:56:06;0.10;99.90
17599;DHT22;8918;52.092;5.232;2022-12-18T16:58:32;0.10;99.90
17599;DHT22;8918;52.092;5.232;2022-12-18T17:00:58;0.20;99.90
17599;DHT22;8918;52.092;5.232;2022-12-18T17:03:24;0.10;99.90
17599;DHT22;8918;52.092;5.232;2022-12-18T17:05:49;0.10;99.90
17599;DHT22;8918;52.092;5.232;2022-12-18T17:08:15;0.10;99.90
17599;DHT22;8918;52.092;5.232;2022-12-18T17:10:41;0.10;99.90
17599;DHT22;8918;52.092;5.232;2022-12-18T17:13:06;0.20;99.90
17599;DHT22;8918;52.092;5.232;2022-12-18T17:15:35;0.20;99.90
17599;DHT22;8918;52.092;5.232;2022-12-18T17:18:02;0.10;99.90
17599;DHT22;8918;52.092;5.232;2022-12-18T17:20:29;0.20;99.90
17599;DHT22;8918;52.092;5.232;2022-12-18T17:22:55;0.20;99.90
17599;DHT22;8918;52.092;5.232;2022-12-18T17:25:23;0.20;99.90
17599;DHT22;8918;52.092;5.232;2022-12-18T17:27:50;0.20;99.90
17599;DHT22;8918;52.092;5.232;2022-12-18T17:30:16;0.20;99.90